sensor_id;sensor_type;location;lat;lon;timestamp;P1;durP1;ratioP1;P2;durP2;ratioP2
7813;SDS011;3952;48.364;16.022;2023-05-10T00:01:09;4.07;;;2.57;;
7813;SDS011;3952;48.364;16.022;2023-05-10T00:03:36;3.07;;;2.77;;
7813;SDS011;3952;48.364;16.022;2023-05-10T00:06:03;2.90;;;2.70;;
7813;SDS011;3952;48.364;16.022;2023-05-10T00:08:31;2.63;;;2.43;;
7813;SDS011;3952;48.364;16.022;2023-05-10T00:10:58;2.27;;;2.17;;
7813;SDS011;3952;48.364;16.022;2023-05-10T00:13:25;2.60;;;2.50;;
7813;SDS011;3952;48.364;16.022;2023-05-10T00:15:52;2.77;;;2.67;;
7813;SDS011;3952;48.364;16.022;2023-05-10T00:18:21;3.33;;;3.00;;
7813;SDS011;3952;48.364;16.022;2023-05-10T00:20:48;3.10;;;2.20;;
7813;SDS011;3952;48.364;16.022;2023-05-10T00:23:16;2.73;;;2.50;;
7813;SDS011;3952;48.364;16.022;2023-05-10T00:25:43;4.87;;;2.47;;
7813;SDS011;3952;48.364;16.022;2023-05-10T00:28:10;4.07;;;2.67;;
7813;SDS011;3952;48.364;16.022;2023-05-10T00:30:37;3.93;;;3.50;;
7813;SDS011;3952;48.364;16.022;2023-05-10T00:33:04;2.80;;;2.60;;
7813;SDS011;3952;48.364;16.022;2023-05-10T00:35:33;2.60;;;2.50;;
7813;SDS011;3952;48.364;16.022;2023-05-10T00:38:01;2.90;;;2.70;;
7813;SDS011;3952;48.364;16.022;2023-05-10T00:40:28;3.27;;;2.93;;
7813;SDS011;3952;48.364;16.022;2023-05-10T00:42:56;2.73;;;2.53;;
7813;SDS011;3952;48.364;16.022;2023-05-10T00:45:23;2.80;;;2.60;;
7813;SDS011;3952;48.364;16.022;2023-05-10T00:47:51;3.10;;;2.43;;
7813;SDS011;3952;48.364;16.022;2023-05-10T00:50:20;2.83;;;2.73;;
7813;SDS011;3952;48.364;16.022;2023-05-10T00:52:49;2.80;;;2.60;;
7813;SDS011;3952;48.364;16.022;2023-05-10T00:55:16;2.63;;;2.53;;
7813;SDS011;3952;48.364;16.022;2023-05-10T00:57:44;2.97;;;2.77;;
7813;SDS011;3952;48.364;16.022;2023-05-10T01:00:12;3.07;;;2.87;;
7813;SDS011;3952;48.364;16.022;2023-05-10T01:02:43;2.50;;;2.40;;
7813;SDS011;3952;48.364;16.022;2023-05-10T01:05:11;4.10;;;2.77;;
7813;SDS011;3952;48.364;16.022;2023-05-10T01:07:38;2.97;;;2.77;;
7813;SDS011;3952;48.364;16.022;2023-05-10T01:10:08;2.63;;;2.43;;
7813;SDS011;3952;48.364;16.022;2023-05-10T01:12:37;2.77;;;2.50;;
7813;SDS011;3952;48.364;16.022;2023-05-10T01:15:06;2.83;;;2.73;;
7813;SDS011;3952;48.364;16.022;2023-05-10T01:17:36;2.40;;;2.30;;
7813;SDS011;3952;48.364;16.022;2023-05-10T01:20:05;3.17;;;2.87;;
7813;SDS011;3952;48.364;16.022;2023-05-10T01:22:42;6.60;;;2.70;;
7813;SDS011;3952;48.364;16.022;2023-05-10T01:25:43;2.67;;;2.47;;
7813;SDS011;3952;48.364;16.022;2023-05-10T01:28:39;3.10;;;2.87;;
7813;SDS011;3952;48.364;16.022;2023-05-10T01:31:30;2.80;;;2.53;;
7813;SDS011;3952;48.364;16.022;2023-05-10T01:34:32;4.37;;;2.60;;
7813;SDS011;3952;48.364;16.022;2023-05-10T01:37:02;3.03;;;2.83;;
7813;SDS011;3952;48.364;16.022;2023-05-10T01:39:36;3.17;;;2.97;;
7813;SDS011;3952;48.364;16.022;2023-05-10T01:42:11;3.40;;;3.00;;
7813;SDS011;3952;48.364;16.022;2023-05-10T01:44:43;2.93;;;2.73;;
7813;SDS011;3952;48.364;16.022;2023-05-10T01:47:16;3.03;;;2.90;;
7813;SDS011;3952;48.364;16.022;2023-05-10T01:49:50;2.70;;;2.60;;
7813;SDS011;3952;48.364;16.022;2023-05-10T01:52:22;3.00;;;2.80;;
7813;SDS011;3952;48.364;16.022;2023-05-10T01:54:59;4.40;;;2.60;;
7813;SDS011;3952;48.364;16.022;2023-05-10T01:57:31;3.57;;;2.63;;
7813;SDS011;3952;48.364;16.022;2023-05-10T02:00:01;2.30;;;2.20;;
7813;SDS011;3952;48.364;16.022;2023-05-10T02:02:30;3.00;;;2.80;;
7813;SDS011;3952;48.364;16.022;2023-05-10T02:05:02;2.67;;;2.50;;
7813;SDS011;3952;48.364;16.022;2023-05-10T02:07:31;2.80;;;2.60;;
7813;SDS011;3952;48.364;16.022;2023-05-10T02:10:01;2.73;;;2.63;;
7813;SDS011;3952;48.364;16.022;2023-05-10T02:12:31;2.87;;;2.70;;
7813;SDS011;3952;48.364;16.022;2023-05-10T02:15:02;2.37;;;2.27;;
7813;SDS011;3952;48.364;16.022;2023-05-10T02:17:31;2.80;;;2.70;;
7813;SDS011;3952;48.364;16.022;2023-05-10T02:19:59;3.00;;;2.80;;
7813;SDS011;3952;48.364;16.022;2023-05-10T02:22:30;2.97;;;2.77;;
7813;SDS011;3952;48.364;16.022;2023-05-10T02:24:59;2.90;;;2.70;;
7813;SDS011;3952;48.364;16.022;2023-05-10T02:27:28;3.23;;;3.03;;
7813;SDS011;3952;48.364;16.022;2023-05-10T02:29:59;3.83;;;2.90;;
7813;SDS011;3952;48.364;16.022;2023-05-10T02:32:27;3.50;;;2.77;;
7813;SDS011;3952;48.364;16.022;2023-05-10T02:34:56;2.97;;;2.83;;
7813;SDS011;3952;48.364;16.022;2023-05-10T02:37:25;3.17;;;2.97;;
7813;SDS011;3952;48.364;16.022;2023-05-10T02:39:54;2.70;;;2.50;;
7813;SDS011;3952;48.364;16.022;2023-05-10T02:42:23;3.30;;;3.10;;
7813;SDS011;3952;48.364;16.022;2023-05-10T02:44:54;2.87;;;2.73;;
7813;SDS011;3952;48.364;16.022;2023-05-10T02:47:25;2.77;;;2.67;;
7813;SDS011;3952;48.364;16.022;2023-05-10T02:49:53;3.20;;;3.00;;
7813;SDS011;3952;48.364;16.022;2023-05-10T02:52:23;4.70;;;2.83;;
7813;SDS011;3952;48.364;16.022;2023-05-10T02:54:55;3.23;;;3.00;;
7813;SDS011;3952;48.364;16.022;2023-05-10T02:57:27;2.80;;;2.70;;
7813;SDS011;3952;48.364;16.022;2023-05-10T02:59:58;3.17;;;2.97;;
7813;SDS011;3952;48.364;16.022;2023-05-10T03:02:25;3.13;;;2.93;;
7813;SDS011;3952;48.364;16.022;2023-05-10T03:04:53;2.83;;;2.73;;
7813;SDS011;3952;48.364;16.022;2023-05-10T03:07:20;2.90;;;2.70;;
7813;SDS011;3952;48.364;16.022;2023-05-10T03:09:47;3.20;;;3.00;;
7813;SDS011;3952;48.364;16.022;2023-05-10T03:12:18;3.53;;;3.23;;
7813;SDS011;3952;48.364;16.022;2023-05-10T03:14:56;3.63;;;3.33;;
7813;SDS011;3952;48.364;16.022;2023-05-10T03:17:29;3.53;;;3.10;;
7813;SDS011;3952;48.364;16.022;2023-05-10T03:20:03;2.60;;;2.50;;
7813;SDS011;3952;48.364;16.022;2023-05-10T03:22:37;5.33;;;3.30;;
7813;SDS011;3952;48.364;16.022;2023-05-10T03:25:06;3.87;;;3.10;;
7813;SDS011;3952;48.364;16.022;2023-05-10T03:27:39;4.20;;;3.90;;
7813;SDS011;3952;48.364;16.022;2023-05-10T03:30:10;3.60;;;3.40;;
7813;SDS011;3952;48.364;16.022;2023-05-10T03:32:38;4.33;;;3.20;;
7813;SDS011;3952;48.364;16.022;2023-05-10T03:35:06;3.50;;;3.20;;
7813;SDS011;3952;48.364;16.022;2023-05-10T03:37:34;3.37;;;3.17;;
7813;SDS011;3952;48.364;16.022;2023-05-10T03:40:02;3.80;;;3.60;;
7813;SDS011;3952;48.364;16.022;2023-05-10T03:42:29;4.63;;;3.70;;
7813;SDS011;3952;48.364;16.022;2023-05-10T03:44:58;4.30;;;3.90;;
7813;SDS011;3952;48.364;16.022;2023-05-10T03:47:25;5.10;;;3.70;;
7813;SDS011;3952;48.364;16.022;2023-05-10T03:49:52;4.43;;;4.10;;
7813;SDS011;3952;48.364;16.022;2023-05-10T03:52:19;4.87;;;4.47;;
7813;SDS011;3952;48.364;16.022;2023-05-10T03:54:47;3.83;;;3.47;;
7813;SDS011;3952;48.364;16.022;2023-05-10T03:57:14;4.50;;;4.20;;
7813;SDS011;3952;48.364;16.022;2023-05-10T03:59:41;4.20;;;3.90;;
7813;SDS011;3952;48.364;16.022;2023-05-10T04:02:10;4.20;;;3.97;;
7813;SDS011;3952;48.364;16.022;2023-05-10T04:04:37;9.40;;;4.27;;
7813;SDS011;3952;48.364;16.022;2023-05-10T04:07:04;4.33;;;4.03;;
7813;SDS011;3952;48.364;16.022;2023-05-10T04:09:31;4.40;;;4.10;;
7813;SDS011;3952;48.364;16.022;2023-05-10T04:11:59;4.60;;;4.20;;
7813;SDS011;3952;48.364;16.022;2023-05-10T04:14:27;4.80;;;4.40;;
7813;SDS011;3952;48.364;16.022;2023-05-10T04:16:54;4.20;;;3.80;;
7813;SDS011;3952;48.364;16.022;2023-05-10T04:19:23;5.97;;;3.83;;
7813;SDS011;3952;48.364;16.022;2023-05-10T04:21:50;6.67;;;4.47;;
7813;SDS011;3952;48.364;16.022;2023-05-10T04:24:17;4.33;;;4.03;;
7813;SDS011;3952;48.364;16.022;2023-05-10T04:26:44;4.17;;;3.87;;
7813;SDS011;3952;48.364;16.022;2023-05-10T04:29:12;4.47;;;4.17;;
7813;SDS011;3952;48.364;16.022;2023-05-10T04:31:39;4.47;;;4.17;;
7813;SDS011;3952;48.364;16.022;2023-05-10T04:34:06;3.60;;;3.30;;
7813;SDS011;3952;48.364;16.022;2023-05-10T04:36:35;3.43;;;3.23;;
7813;SDS011;3952;48.364;16.022;2023-05-10T04:39:02;3.70;;;3.50;;
7813;SDS011;3952;48.364;16.022;2023-05-10T04:41:29;3.63;;;3.43;;
7813;SDS011;3952;48.364;16.022;2023-05-10T04:43:57;3.40;;;3.10;;
7813;SDS011;3952;48.364;16.022;2023-05-10T04:46:24;3.33;;;3.13;;
7813;SDS011;3952;48.364;16.022;2023-05-10T04:48:51;2.90;;;2.70;;
7813;SDS011;3952;48.364;16.022;2023-05-10T04:51:18;3.50;;;3.30;;
7813;SDS011;3952;48.364;16.022;2023-05-10T04:53:47;3.50;;;2.77;;
7813;SDS011;3952;48.364;16.022;2023-05-10T04:56:14;4.00;;;3.53;;
7813;SDS011;3952;48.364;16.022;2023-05-10T04:58:41;2.83;;;2.73;;
7813;SDS011;3952;48.364;16.022;2023-05-10T05:01:08;3.63;;;3.33;;
7813;SDS011;3952;48.364;16.022;2023-05-10T05:03:36;3.63;;;3.40;;
7813;SDS011;3952;48.364;16.022;2023-05-10T05:06:03;3.53;;;3.23;;
7813;SDS011;3952;48.364;16.022;2023-05-10T05:08:31;3.30;;;3.10;;
7813;SDS011;3952;48.364;16.022;2023-05-10T05:10:59;3.73;;;3.53;;
7813;SDS011;3952;48.364;16.022;2023-05-10T05:13:26;3.27;;;3.07;;
7813;SDS011;3952;48.364;16.022;2023-05-10T05:15:53;3.13;;;3.03;;
7813;SDS011;3952;48.364;16.022;2023-05-10T05:18:21;3.33;;;3.13;;
7813;SDS011;3952;48.364;16.022;2023-05-10T05:20:48;3.83;;;3.20;;
7813;SDS011;3952;48.364;16.022;2023-05-10T05:23:15;3.30;;;3.10;;
7813;SDS011;3952;48.364;16.022;2023-05-10T05:25:43;3.43;;;3.20;;
7813;SDS011;3952;48.364;16.022;2023-05-10T05:28:12;3.80;;;3.53;;
7813;SDS011;3952;48.364;16.022;2023-05-10T05:30:39;3.40;;;3.20;;
7813;SDS011;3952;48.364;16.022;2023-05-10T05:33:06;3.50;;;3.30;;
7813;SDS011;3952;48.364;16.022;2023-05-10T05:35:33;3.60;;;3.30;;
7813;SDS011;3952;48.364;16.022;2023-05-10T05:38:01;4.17;;;3.77;;
7813;SDS011;3952;48.364;16.022;2023-05-10T05:40:28;3.60;;;3.30;;
7813;SDS011;3952;48.364;16.022;2023-05-10T05:42:55;5.03;;;4.37;;
7813;SDS011;3952;48.364;16.022;2023-05-10T05:45:24;4.13;;;3.87;;
7813;SDS011;3952;48.364;16.022;2023-05-10T05:47:51;3.60;;;3.40;;
7813;SDS011;3952;48.364;16.022;2023-05-10T05:50:18;4.50;;;4.10;;
7813;SDS011;3952;48.364;16.022;2023-05-10T05:52:45;4.47;;;3.63;;
7813;SDS011;3952;48.364;16.022;2023-05-10T05:55:12;3.57;;;3.30;;
7813;SDS011;3952;48.364;16.022;2023-05-10T05:57:39;3.43;;;3.23;;
7813;SDS011;3952;48.364;16.022;2023-05-10T06:00:07;4.17;;;3.20;;
7813;SDS011;3952;48.364;16.022;2023-05-10T06:02:36;3.60;;;3.30;;
7813;SDS011;3952;48.364;16.022;2023-05-10T06:05:04;3.07;;;2.87;;
7813;SDS011;3952;48.364;16.022;2023-05-10T06:07:32;3.47;;;3.20;;
7813;SDS011;3952;48.364;16.022;2023-05-10T06:10:00;3.57;;;3.37;;
7813;SDS011;3952;48.364;16.022;2023-05-10T06:12:27;3.47;;;3.27;;
7813;SDS011;3952;48.364;16.022;2023-05-10T06:14:55;3.80;;;3.60;;
7813;SDS011;3952;48.364;16.022;2023-05-10T06:17:22;3.77;;;3.47;;
7813;SDS011;3952;48.364;16.022;2023-05-10T06:19:51;3.63;;;3.40;;
7813;SDS011;3952;48.364;16.022;2023-05-10T06:22:18;3.70;;;3.40;;
7813;SDS011;3952;48.364;16.022;2023-05-10T06:24:47;3.77;;;3.33;;
7813;SDS011;3952;48.364;16.022;2023-05-10T06:27:14;3.83;;;3.53;;
7813;SDS011;3952;48.364;16.022;2023-05-10T06:29:42;4.27;;;3.87;;
7813;SDS011;3952;48.364;16.022;2023-05-10T06:32:09;3.47;;;3.17;;
7813;SDS011;3952;48.364;16.022;2023-05-10T06:34:37;3.47;;;3.27;;
7813;SDS011;3952;48.364;16.022;2023-05-10T06:37:05;3.53;;;3.33;;
7813;SDS011;3952;48.364;16.022;2023-05-10T06:39:32;3.63;;;3.40;;
7813;SDS011;3952;48.364;16.022;2023-05-10T06:41:59;3.47;;;3.23;;
7813;SDS011;3952;48.364;16.022;2023-05-10T06:44:27;3.37;;;3.17;;
7813;SDS011;3952;48.364;16.022;2023-05-10T06:46:55;3.83;;;3.13;;
7813;SDS011;3952;48.364;16.022;2023-05-10T06:49:22;3.40;;;3.03;;
7813;SDS011;3952;48.364;16.022;2023-05-10T06:51:49;2.80;;;2.60;;
7813;SDS011;3952;48.364;16.022;2023-05-10T06:54:18;2.77;;;2.67;;
7813;SDS011;3952;48.364;16.022;2023-05-10T06:56:45;2.93;;;2.63;;
7813;SDS011;3952;48.364;16.022;2023-05-10T06:59:12;3.93;;;2.60;;
7813;SDS011;3952;48.364;16.022;2023-05-10T07:01:41;2.50;;;2.30;;
7813;SDS011;3952;48.364;16.022;2023-05-10T07:04:08;2.63;;;2.43;;
7813;SDS011;3952;48.364;16.022;2023-05-10T07:06:35;2.93;;;2.50;;
7813;SDS011;3952;48.364;16.022;2023-05-10T07:09:03;2.47;;;2.37;;
7813;SDS011;3952;48.364;16.022;2023-05-10T07:11:31;2.57;;;2.40;;
7813;SDS011;3952;48.364;16.022;2023-05-10T07:13:58;2.27;;;2.17;;
7813;SDS011;3952;48.364;16.022;2023-05-10T07:16:26;2.40;;;2.30;;
7813;SDS011;3952;48.364;16.022;2023-05-10T07:18:53;3.87;;;2.17;;
7813;SDS011;3952;48.364;16.022;2023-05-10T07:21:21;2.40;;;2.30;;
7813;SDS011;3952;48.364;16.022;2023-05-10T07:23:49;2.40;;;2.30;;
7813;SDS011;3952;48.364;16.022;2023-05-10T07:26:16;6.90;;;2.70;;
7813;SDS011;3952;48.364;16.022;2023-05-10T07:28:45;3.00;;;2.70;;
7813;SDS011;3952;48.364;16.022;2023-05-10T07:31:12;5.50;;;2.80;;
7813;SDS011;3952;48.364;16.022;2023-05-10T07:33:39;4.57;;;2.40;;
7813;SDS011;3952;48.364;16.022;2023-05-10T07:36:06;3.97;;;2.20;;
7813;SDS011;3952;48.364;16.022;2023-05-10T07:38:34;3.13;;;2.33;;
7813;SDS011;3952;48.364;16.022;2023-05-10T07:41:01;8.13;;;2.53;;
7813;SDS011;3952;48.364;16.022;2023-05-10T07:43:28;2.40;;;2.23;;
7813;SDS011;3952;48.364;16.022;2023-05-10T07:45:56;3.33;;;2.40;;
7813;SDS011;3952;48.364;16.022;2023-05-10T07:48:24;3.87;;;2.50;;
7813;SDS011;3952;48.364;16.022;2023-05-10T07:50:52;4.63;;;2.37;;
7813;SDS011;3952;48.364;16.022;2023-05-10T07:53:19;2.30;;;2.10;;
7813;SDS011;3952;48.364;16.022;2023-05-10T07:55:49;3.63;;;2.00;;
7813;SDS011;3952;48.364;16.022;2023-05-10T07:58:17;3.03;;;2.30;;
7813;SDS011;3952;48.364;16.022;2023-05-10T08:00:45;2.07;;;1.97;;
7813;SDS011;3952;48.364;16.022;2023-05-10T08:03:13;2.40;;;2.20;;
7813;SDS011;3952;48.364;16.022;2023-05-10T08:05:40;2.20;;;2.00;;
7813;SDS011;3952;48.364;16.022;2023-05-10T08:08:08;2.93;;;2.00;;
7813;SDS011;3952;48.364;16.022;2023-05-10T08:10:35;3.10;;;2.10;;
7813;SDS011;3952;48.364;16.022;2023-05-10T08:13:02;1.60;;;1.60;;
7813;SDS011;3952;48.364;16.022;2023-05-10T08:15:29;4.50;;;2.00;;
7813;SDS011;3952;48.364;16.022;2023-05-10T08:17:56;1.90;;;1.80;;
7813;SDS011;3952;48.364;16.022;2023-05-10T08:20:25;2.90;;;1.80;;
7813;SDS011;3952;48.364;16.022;2023-05-10T08:22:52;2.53;;;2.30;;
7813;SDS011;3952;48.364;16.022;2023-05-10T08:25:20;2.00;;;1.90;;
7813;SDS011;3952;48.364;16.022;2023-05-10T08:27:47;2.50;;;2.10;;
7813;SDS011;3952;48.364;16.022;2023-05-10T08:30:14;3.07;;;2.30;;
7813;SDS011;3952;48.364;16.022;2023-05-10T08:32:42;2.20;;;2.10;;
7813;SDS011;3952;48.364;16.022;2023-05-10T08:35:09;4.40;;;2.57;;
7813;SDS011;3952;48.364;16.022;2023-05-10T08:37:38;2.40;;;2.30;;
7813;SDS011;3952;48.364;16.022;2023-05-10T08:40:05;2.97;;;2.67;;
7813;SDS011;3952;48.364;16.022;2023-05-10T08:42:36;2.43;;;2.20;;
7813;SDS011;3952;48.364;16.022;2023-05-10T08:45:06;2.47;;;2.37;;
7813;SDS011;3952;48.364;16.022;2023-05-10T08:47:34;4.60;;;2.50;;
7813;SDS011;3952;48.364;16.022;2023-05-10T08:50:04;2.60;;;2.40;;
7813;SDS011;3952;48.364;16.022;2023-05-10T08:52:33;2.50;;;2.40;;
7813;SDS011;3952;48.364;16.022;2023-05-10T08:55:06;6.87;;;2.33;;
7813;SDS011;3952;48.364;16.022;2023-05-10T08:57:35;4.63;;;2.70;;
7813;SDS011;3952;48.364;16.022;2023-05-10T09:00:03;2.70;;;2.50;;
7813;SDS011;3952;48.364;16.022;2023-05-10T09:02:31;2.80;;;2.60;;
7813;SDS011;3952;48.364;16.022;2023-05-10T09:04:59;3.40;;;3.10;;
7813;SDS011;3952;48.364;16.022;2023-05-10T09:07:27;3.17;;;2.97;;
7813;SDS011;3952;48.364;16.022;2023-05-10T09:09:56;3.27;;;3.10;;
7813;SDS011;3952;48.364;16.022;2023-05-10T09:12:24;2.90;;;2.70;;
7813;SDS011;3952;48.364;16.022;2023-05-10T09:14:51;2.70;;;2.60;;
7813;SDS011;3952;48.364;16.022;2023-05-10T09:17:20;3.73;;;3.23;;
7813;SDS011;3952;48.364;16.022;2023-05-10T09:19:49;4.20;;;3.90;;
7813;SDS011;3952;48.364;16.022;2023-05-10T09:22:23;3.57;;;2.83;;
7813;SDS011;3952;48.364;16.022;2023-05-10T09:25:04;3.53;;;2.50;;
7813;SDS011;3952;48.364;16.022;2023-05-10T09:27:32;3.23;;;2.73;;
7813;SDS011;3952;48.364;16.022;2023-05-10T09:29:59;4.93;;;2.50;;
7813;SDS011;3952;48.364;16.022;2023-05-10T09:32:35;3.27;;;2.50;;
7813;SDS011;3952;48.364;16.022;2023-05-10T09:35:07;2.73;;;2.53;;
7813;SDS011;3952;48.364;16.022;2023-05-10T09:37:35;2.60;;;2.50;;
7813;SDS011;3952;48.364;16.022;2023-05-10T09:40:07;2.57;;;2.47;;
7813;SDS011;3952;48.364;16.022;2023-05-10T09:42:37;5.93;;;3.00;;
7813;SDS011;3952;48.364;16.022;2023-05-10T09:45:05;2.80;;;2.60;;
7813;SDS011;3952;48.364;16.022;2023-05-10T09:47:33;2.80;;;2.60;;
7813;SDS011;3952;48.364;16.022;2023-05-10T09:50:01;6.50;;;2.80;;
7813;SDS011;3952;48.364;16.022;2023-05-10T09:52:29;2.70;;;2.50;;
7813;SDS011;3952;48.364;16.022;2023-05-10T09:54:57;2.60;;;2.40;;
7813;SDS011;3952;48.364;16.022;2023-05-10T09:57:25;3.70;;;2.40;;
7813;SDS011;3952;48.364;16.022;2023-05-10T09:59:53;5.03;;;2.77;;
7813;SDS011;3952;48.364;16.022;2023-05-10T10:02:20;2.27;;;2.07;;
7813;SDS011;3952;48.364;16.022;2023-05-10T10:04:54;3.73;;;2.40;;
7813;SDS011;3952;48.364;16.022;2023-05-10T10:07:22;3.13;;;2.70;;
7813;SDS011;3952;48.364;16.022;2023-05-10T10:09:51;2.33;;;2.23;;
7813;SDS011;3952;48.364;16.022;2023-05-10T10:12:19;2.50;;;2.40;;
7813;SDS011;3952;48.364;16.022;2023-05-10T10:14:48;2.40;;;2.13;;
7813;SDS011;3952;48.364;16.022;2023-05-10T10:17:16;2.63;;;2.30;;
7813;SDS011;3952;48.364;16.022;2023-05-10T10:19:43;2.50;;;2.27;;
7813;SDS011;3952;48.364;16.022;2023-05-10T10:22:12;2.53;;;2.33;;
7813;SDS011;3952;48.364;16.022;2023-05-10T10:24:39;3.37;;;2.40;;
7813;SDS011;3952;48.364;16.022;2023-05-10T10:27:13;2.77;;;2.20;;
7813;SDS011;3952;48.364;16.022;2023-05-10T10:29:58;3.40;;;3.10;;
7813;SDS011;3952;48.364;16.022;2023-05-10T10:32:35;5.37;;;4.23;;
7813;SDS011;3952;48.364;16.022;2023-05-10T10:35:11;4.80;;;2.37;;
7813;SDS011;3952;48.364;16.022;2023-05-10T10:37:46;5.30;;;3.60;;
7813;SDS011;3952;48.364;16.022;2023-05-10T10:40:24;3.33;;;3.00;;
7813;SDS011;3952;48.364;16.022;2023-05-10T10:42:52;25.97;;;3.30;;
7813;SDS011;3952;48.364;16.022;2023-05-10T10:45:22;3.13;;;2.10;;
7813;SDS011;3952;48.364;16.022;2023-05-10T10:47:54;5.90;;;2.27;;
7813;SDS011;3952;48.364;16.022;2023-05-10T10:50:47;2.20;;;2.00;;
7813;SDS011;3952;48.364;16.022;2023-05-10T10:53:22;2.07;;;1.97;;
7813;SDS011;3952;48.364;16.022;2023-05-10T10:55:55;2.00;;;1.90;;
7813;SDS011;3952;48.364;16.022;2023-05-10T10:58:32;2.13;;;2.03;;
7813;SDS011;3952;48.364;16.022;2023-05-10T11:01:10;3.50;;;2.27;;
7813;SDS011;3952;48.364;16.022;2023-05-10T11:03:40;2.30;;;2.20;;
7813;SDS011;3952;48.364;16.022;2023-05-10T11:06:07;1.97;;;1.83;;
7813;SDS011;3952;48.364;16.022;2023-05-10T11:08:41;1.90;;;1.80;;
7813;SDS011;3952;48.364;16.022;2023-05-10T11:11:14;2.43;;;1.53;;
7813;SDS011;3952;48.364;16.022;2023-05-10T11:13:42;1.80;;;1.80;;
7813;SDS011;3952;48.364;16.022;2023-05-10T11:16:12;1.63;;;1.47;;
7813;SDS011;3952;48.364;16.022;2023-05-10T11:18:54;1.80;;;1.70;;
7813;SDS011;3952;48.364;16.022;2023-05-10T11:21:25;1.70;;;1.60;;
7813;SDS011;3952;48.364;16.022;2023-05-10T11:23:52;1.77;;;1.67;;
7813;SDS011;3952;48.364;16.022;2023-05-10T11:26:22;1.60;;;1.50;;
7813;SDS011;3952;48.364;16.022;2023-05-10T11:28:51;1.63;;;1.53;;
7813;SDS011;3952;48.364;16.022;2023-05-10T11:31:22;3.50;;;1.63;;
7813;SDS011;3952;48.364;16.022;2023-05-10T11:33:52;3.50;;;1.53;;
7813;SDS011;3952;48.364;16.022;2023-05-10T11:36:21;2.00;;;1.90;;
7813;SDS011;3952;48.364;16.022;2023-05-10T11:38:50;1.13;;;1.13;;
7813;SDS011;3952;48.364;16.022;2023-05-10T11:41:18;4.20;;;2.00;;
7813;SDS011;3952;48.364;16.022;2023-05-10T11:43:48;2.20;;;1.90;;
7813;SDS011;3952;48.364;16.022;2023-05-10T11:46:17;2.10;;;1.90;;
7813;SDS011;3952;48.364;16.022;2023-05-10T11:48:48;1.80;;;1.70;;
7813;SDS011;3952;48.364;16.022;2023-05-10T11:51:19;3.50;;;1.93;;
7813;SDS011;3952;48.364;16.022;2023-05-10T11:53:48;6.33;;;1.63;;
7813;SDS011;3952;48.364;16.022;2023-05-10T11:56:16;3.23;;;2.20;;
7813;SDS011;3952;48.364;16.022;2023-05-10T11:58:43;2.03;;;1.93;;
7813;SDS011;3952;48.364;16.022;2023-05-10T12:01:12;2.20;;;2.10;;
7813;SDS011;3952;48.364;16.022;2023-05-10T12:03:39;6.00;;;3.60;;
7813;SDS011;3952;48.364;16.022;2023-05-10T12:06:08;5.17;;;3.03;;
7813;SDS011;3952;48.364;16.022;2023-05-10T12:08:35;2.30;;;1.50;;
7813;SDS011;3952;48.364;16.022;2023-05-10T12:11:06;4.93;;;1.97;;
7813;SDS011;3952;48.364;16.022;2023-05-10T12:13:37;1.60;;;1.50;;
7813;SDS011;3952;48.364;16.022;2023-05-10T12:16:12;4.13;;;2.53;;
7813;SDS011;3952;48.364;16.022;2023-05-10T12:18:40;3.53;;;1.60;;
7813;SDS011;3952;48.364;16.022;2023-05-10T12:21:10;3.13;;;2.00;;
7813;SDS011;3952;48.364;16.022;2023-05-10T12:23:39;1.63;;;1.50;;
7813;SDS011;3952;48.364;16.022;2023-05-10T12:26:07;1.60;;;1.50;;
7813;SDS011;3952;48.364;16.022;2023-05-10T12:28:36;1.87;;;1.70;;
7813;SDS011;3952;48.364;16.022;2023-05-10T12:31:04;2.67;;;2.47;;
7813;SDS011;3952;48.364;16.022;2023-05-10T12:33:35;2.00;;;1.80;;
7813;SDS011;3952;48.364;16.022;2023-05-10T12:36:04;2.40;;;2.00;;
7813;SDS011;3952;48.364;16.022;2023-05-10T12:38:35;2.60;;;2.40;;
7813;SDS011;3952;48.364;16.022;2023-05-10T12:41:03;2.50;;;1.87;;
7813;SDS011;3952;48.364;16.022;2023-05-10T12:43:32;2.33;;;2.20;;
7813;SDS011;3952;48.364;16.022;2023-05-10T12:46:04;1.50;;;1.40;;
7813;SDS011;3952;48.364;16.022;2023-05-10T12:48:32;2.17;;;1.43;;
7813;SDS011;3952;48.364;16.022;2023-05-10T12:51:00;1.43;;;1.37;;
7813;SDS011;3952;48.364;16.022;2023-05-10T12:53:27;2.20;;;2.00;;
7813;SDS011;3952;48.364;16.022;2023-05-10T12:55:56;1.80;;;1.70;;
7813;SDS011;3952;48.364;16.022;2023-05-10T12:58:24;2.30;;;1.80;;
7813;SDS011;3952;48.364;16.022;2023-05-10T13:00:51;2.20;;;2.00;;
7813;SDS011;3952;48.364;16.022;2023-05-10T13:03:18;1.90;;;1.80;;
7813;SDS011;3952;48.364;16.022;2023-05-10T13:05:45;2.20;;;1.47;;
7813;SDS011;3952;48.364;16.022;2023-05-10T13:08:12;3.00;;;2.00;;
7813;SDS011;3952;48.364;16.022;2023-05-10T13:10:40;3.70;;;3.00;;
7813;SDS011;3952;48.364;16.022;2023-05-10T13:13:09;3.07;;;2.53;;
7813;SDS011;3952;48.364;16.022;2023-05-10T13:15:36;2.00;;;1.90;;
7813;SDS011;3952;48.364;16.022;2023-05-10T13:18:03;2.07;;;1.97;;
7813;SDS011;3952;48.364;16.022;2023-05-10T13:20:30;2.10;;;1.90;;
7813;SDS011;3952;48.364;16.022;2023-05-10T13:22:57;1.60;;;1.50;;
7813;SDS011;3952;48.364;16.022;2023-05-10T13:25:25;1.40;;;1.30;;
7813;SDS011;3952;48.364;16.022;2023-05-10T13:27:52;2.20;;;1.67;;
7813;SDS011;3952;48.364;16.022;2023-05-10T13:30:21;1.70;;;1.00;;
7813;SDS011;3952;48.364;16.022;2023-05-10T13:32:49;1.20;;;1.20;;
7813;SDS011;3952;48.364;16.022;2023-05-10T13:35:16;1.37;;;1.27;;
7813;SDS011;3952;48.364;16.022;2023-05-10T13:37:43;1.30;;;1.30;;
7813;SDS011;3952;48.364;16.022;2023-05-10T13:40:10;1.20;;;1.20;;
7813;SDS011;3952;48.364;16.022;2023-05-10T13:42:38;1.47;;;1.47;;
7813;SDS011;3952;48.364;16.022;2023-05-10T13:45:06;2.43;;;1.40;;
7813;SDS011;3952;48.364;16.022;2023-05-10T13:47:35;2.37;;;1.07;;
7813;SDS011;3952;48.364;16.022;2023-05-10T13:50:02;0.90;;;0.90;;
7813;SDS011;3952;48.364;16.022;2023-05-10T13:52:30;0.97;;;0.97;;
7813;SDS011;3952;48.364;16.022;2023-05-10T13:54:57;1.10;;;1.10;;
7813;SDS011;3952;48.364;16.022;2023-05-10T13:57:24;1.10;;;1.10;;
7813;SDS011;3952;48.364;16.022;2023-05-10T13:59:51;1.57;;;1.30;;
7813;SDS011;3952;48.364;16.022;2023-05-10T14:02:19;0.93;;;0.93;;
7813;SDS011;3952;48.364;16.022;2023-05-10T14:04:47;1.43;;;1.30;;
7813;SDS011;3952;48.364;16.022;2023-05-10T14:07:14;1.27;;;1.17;;
7813;SDS011;3952;48.364;16.022;2023-05-10T14:09:42;1.87;;;1.77;;
7813;SDS011;3952;48.364;16.022;2023-05-10T14:12:10;1.13;;;1.07;;
7813;SDS011;3952;48.364;16.022;2023-05-10T14:14:37;2.40;;;1.23;;
7813;SDS011;3952;48.364;16.022;2023-05-10T14:17:04;1.30;;;1.30;;
7813;SDS011;3952;48.364;16.022;2023-05-10T14:19:31;1.23;;;1.23;;
7813;SDS011;3952;48.364;16.022;2023-05-10T14:22:00;1.50;;;1.40;;
7813;SDS011;3952;48.364;16.022;2023-05-10T14:24:28;1.47;;;1.47;;
7813;SDS011;3952;48.364;16.022;2023-05-10T14:26:55;1.67;;;1.60;;
7813;SDS011;3952;48.364;16.022;2023-05-10T14:29:22;2.30;;;1.60;;
7813;SDS011;3952;48.364;16.022;2023-05-10T14:31:49;1.40;;;1.40;;
7813;SDS011;3952;48.364;16.022;2023-05-10T14:34:17;1.70;;;1.60;;
7813;SDS011;3952;48.364;16.022;2023-05-10T14:36:44;3.00;;;1.60;;
7813;SDS011;3952;48.364;16.022;2023-05-10T14:39:12;1.93;;;1.67;;
7813;SDS011;3952;48.364;16.022;2023-05-10T14:41:40;1.63;;;1.40;;
7813;SDS011;3952;48.364;16.022;2023-05-10T14:44:09;2.20;;;1.80;;
7813;SDS011;3952;48.364;16.022;2023-05-10T14:46:36;1.90;;;1.80;;
7813;SDS011;3952;48.364;16.022;2023-05-10T14:49:04;1.80;;;1.70;;
7813;SDS011;3952;48.364;16.022;2023-05-10T14:51:31;1.97;;;1.73;;
7813;SDS011;3952;48.364;16.022;2023-05-10T14:53:59;2.33;;;1.70;;
7813;SDS011;3952;48.364;16.022;2023-05-10T14:56:27;3.30;;;1.57;;
7813;SDS011;3952;48.364;16.022;2023-05-10T14:58:54;1.90;;;1.80;;
7813;SDS011;3952;48.364;16.022;2023-05-10T15:01:22;2.13;;;1.90;;
7813;SDS011;3952;48.364;16.022;2023-05-10T15:03:49;3.27;;;1.73;;
7813;SDS011;3952;48.364;16.022;2023-05-10T15:06:16;3.47;;;1.80;;
7813;SDS011;3952;48.364;16.022;2023-05-10T15:08:49;1.20;;;1.20;;
7813;SDS011;3952;48.364;16.022;2023-05-10T15:11:16;2.23;;;2.13;;